Time;durP1;ratioP1;P1;durP2;ratioP2;P2;SDS_P1;SDS_P2;PMS_P1;PMS_P2;Temp;Humidity;BMP_temperature;BMP_pressure;BME280_temperature;BME280_humidity;BME280_pressure;Samples;Min_cycle;Max_cycle;Signal;HPM_P1;HPM_P2
2023/04/23 00:00:12;;;;;;;6.72;6.03;;;;;;;14.63;100.00;100349.38;5020760;28;20208;-46
2023/04/23 00:02:43;;;;;;;8.30;6.63;;;;;;;14.65;100.00;100349.28;5017829;28;20180;-45
2023/04/23 00:05:11;;;;;;;8.93;7.65;;;;;;;14.47;100.00;100335.94;5019366;28;20263;-46
2023/04/23 00:07:37;;;;;;;7.97;7.00;;;;;;;14.55;100.00;100338.22;5015135;28;20678;-45
2023/04/23 00:10:04;;;;;;;8.55;7.65;;;;;;;14.43;100.00;100329.03;5019745;28;20239;-47
2023/04/23 00:12:31;;;;;;;7.50;6.35;;;;;;;14.45;100.00;100329.78;5004023;28;20180;-45
2023/04/23 00:14:57;;;;;;;9.57;8.77;;;;;;;14.41;100.00;100322.88;5019041;28;20210;-45
2023/04/23 00:17:22;;;;;;;9.85;8.85;;;;;;;14.28;100.00;100329.97;5018307;28;20180;-46
2023/04/23 00:19:48;;;;;;;11.18;9.13;;;;;;;14.34;100.00;100330.47;5018982;28;20265;-46
2023/04/23 00:22:15;;;;;;;10.75;8.63;;;;;;;14.35;100.00;100320.56;5021349;28;20243;-45
2023/04/23 00:24:42;;;;;;;9.95;9.05;;;;;;;14.34;100.00;100311.63;5016551;28;20168;-49
2023/04/23 00:27:07;;;;;;;9.38;8.55;;;;;;;14.37;100.00;100311.41;5007332;28;20204;-49
2023/04/23 00:29:33;;;;;;;11.63;9.40;;;;;;;14.31;100.00;100309.09;5023278;28;20409;-47
2023/04/23 00:31:59;;;;;;;12.27;9.60;;;;;;;14.26;100.00;100310.34;5018961;28;20273;-46
2023/04/23 00:34:25;;;;;;;11.27;8.63;;;;;;;14.27;100.00;100312.06;5024102;28;20232;-46
2023/04/23 00:36:50;;;;;;;10.85;9.75;;;;;;;14.18;100.00;100310.81;5006697;28;20176;-48
2023/04/23 00:39:16;;;;;;;11.77;10.32;;;;;;;14.10;100.00;100305.03;4999094;28;20196;-47
2023/04/23 00:41:43;;;;;;;12.18;10.88;;;;;;;14.12;100.00;100303.97;5010977;28;20731;-47
2023/04/23 00:44:09;;;;;;;14.40;10.65;;;;;;;14.21;100.00;100318.69;5012264;28;20169;-49
2023/04/23 00:46:37;;;;;;;11.32;9.18;;;;;;;14.33;100.00;100307.16;5023001;28;20283;-45
2023/04/23 00:49:03;;;;;;;10.43;9.35;;;;;;;14.37;100.00;100311.41;5008512;28;20196;-48
2023/04/23 00:51:28;;;;;;;10.75;9.68;;;;;;;14.21;100.00;100307.91;5016819;28;20254;-46
2023/04/23 00:53:55;;;;;;;11.50;10.30;;;;;;;14.14;100.00;100303.88;5021592;28;20526;-48
2023/04/23 00:56:22;;;;;;;12.18;10.80;;;;;;;14.13;100.00;100302.16;5013745;28;20172;-48
2023/04/23 00:58:49;;;;;;;11.77;10.63;;;;;;;14.14;100.00;100301.19;5019661;28;20177;-45
2023/04/23 01:01:17;;;;;;;11.90;9.88;;;;;;;14.18;100.00;100300.91;5016141;28;20561;-48
2023/04/23 01:03:44;;;;;;;11.82;10.65;;;;;;;14.04;100.00;100300.00;5019341;28;20176;-50
2023/04/23 01:06:09;;;;;;;11.32;10.13;;;;;;;14.06;100.00;100292.69;5017514;28;20179;-48
2023/04/23 01:08:35;;;;;;;13.95;11.25;;;;;;;14.03;100.00;100299.16;5020770;28;20207;-49
2023/04/23 01:11:02;;;;;;;12.40;11.27;;;;;;;13.99;100.00;100301.19;5008503;28;20216;-51
2023/04/23 01:13:29;;;;;;;13.45;11.02;;;;;;;13.92;100.00;100294.41;5004340;28;20620;-49
2023/04/23 01:15:57;;;;;;;12.35;11.20;;;;;;;13.90;100.00;100315.19;5017651;28;20399;-48
2023/04/23 01:18:23;;;;;;;12.48;11.27;;;;;;;13.89;100.00;100301.81;5019953;28;20184;-52
2023/04/23 01:20:49;;;;;;;12.73;11.52;;;;;;;13.91;100.00;100308.84;5013749;28;20197;-51
2023/04/23 01:23:15;;;;;;;11.77;10.57;;;;;;;13.93;100.00;100303.38;4996209;28;20183;-51
2023/04/23 01:25:42;;;;;;;14.77;10.98;;;;;;;13.85;100.00;100306.53;5016956;28;20231;-51
2023/04/23 01:28:08;;;;;;;12.80;10.52;;;;;;;13.92;100.00;100310.56;5009149;28;20189;-49
2023/04/23 01:30:35;;;;;;;12.27;11.07;;;;;;;13.89;100.00;100309.91;5015749;28;20532;-49
2023/04/23 01:36:48;;;;;;;15.00;12.75;;;;;;;13.73;100.00;100310.81;5006734;28;20207;-51
2023/04/23 01:39:14;;;;;;;14.15;12.77;;;;;;;13.74;100.00;100306.31;5015273;28;20208;-49
2023/04/23 01:41:40;;;;;;;13.32;12.13;;;;;;;13.78;100.00;100310.56;5014972;28;20222;-49
2023/04/23 01:44:06;;;;;;;13.25;12.00;;;;;;;13.71;100.00;100307.34;5000658;28;20184;-49
2023/04/23 01:46:31;;;;;;;13.65;12.48;;;;;;;13.73;100.00;100305.44;5012049;28;20212;-50
2023/04/23 01:48:57;;;;;;;14.73;13.25;;;;;;;13.57;100.00;100308.16;5011913;28;20185;-48
2023/04/23 01:51:24;;;;;;;14.50;13.02;;;;;;;13.58;100.00;100303.66;4997408;28;20540;-49
2023/04/23 01:53:50;;;;;;;14.77;13.32;;;;;;;13.59;100.00;100305.38;5003113;28;20275;-48
2023/04/23 01:56:18;;;;;;;14.68;13.27;;;;;;;13.60;100.00;100307.13;5020297;28;20726;-47
2023/04/23 01:58:44;;;;;;;15.70;14.20;;;;;;;13.39;100.00;100312.81;5011819;28;20222;-45
2023/04/23 02:01:09;;;;;;;18.75;16.95;;;;;;;13.32;100.00;100318.66;5002166;28;20561;-47
2023/04/23 02:03:35;;;;;;;20.40;18.42;;;;;;;13.03;100.00;100328.31;4997984;28;20782;-45
2023/04/23 02:06:00;;;;;;;22.33;20.27;;;;;;;12.95;100.00;100320.72;5004937;28;20271;-46
2023/04/23 02:08:27;;;;;;;23.17;20.88;;;;;;;12.72;100.00;100319.28;5028453;28;20200;-48
2023/04/23 02:10:53;;;;;;;22.73;20.60;;;;;;;12.54;100.00;100331.91;5005393;28;20212;-44
2023/04/23 02:13:18;;;;;;;24.23;22.00;;;;;;;12.46;100.00;100328.78;5001721;28;20180;-48
2023/04/23 02:15:44;;;;;;;24.38;22.17;;;;;;;12.33;100.00;100340.19;5019733;28;20180;-47
2023/04/23 02:18:09;;;;;;;28.67;25.88;;;;;;;12.22;100.00;100342.56;5015325;28;20182;-47
2023/04/23 02:20:39;;;;;;;29.50;26.67;;;;;;;12.22;100.00;100349.75;5016318;28;20219;-49
2023/04/23 02:23:06;;;;;;;30.77;27.67;;;;;;;12.06;100.00;100357.75;5014760;28;20230;-49
2023/04/23 02:25:32;;;;;;;31.70;28.52;;;;;;;12.01;100.00;100355.31;5016618;28;20242;-51
2023/04/23 02:27:58;;;;;;;32.67;29.58;;;;;;;12.04;100.00;100365.03;5013216;28;20385;-50
2023/04/23 02:30:24;;;;;;;33.85;30.58;;;;;;;11.83;100.00;100362.47;5004212;28;20253;-49
2023/04/23 02:32:50;;;;;;;34.90;31.48;;;;;;;11.58;100.00;100362.81;5013678;28;20596;-48
2023/04/23 02:35:16;;;;;;;35.72;32.13;;;;;;;11.70;100.00;100366.72;5024083;28;20207;-50
2023/04/23 02:37:41;;;;;;;34.75;31.42;;;;;;;11.56;100.00;100370.06;5016468;28;20192;-48
2023/04/23 02:40:08;;;;;;;33.53;30.35;;;;;;;11.42;100.00;100373.44;5002308;28;20263;-49
2023/04/23 02:42:33;;;;;;;31.38;28.30;;;;;;;11.23;100.00;100369.91;5018540;28;20599;-48
2023/04/23 02:44:59;;;;;;;33.78;30.38;;;;;;;11.12;100.00;100392.75;5015064;28;20172;-48
2023/04/23 02:47:24;;;;;;;35.55;32.17;;;;;;;11.14;100.00;100395.38;5020391;28;20251;-50
2023/04/23 02:49:50;;;;;;;36.00;32.30;;;;;;;11.08;100.00;100396.50;5019821;28;20701;-48
2023/04/23 02:52:15;;;;;;;34.83;31.30;;;;;;;11.07;100.00;100385.88;5003757;28;20233;-49
2023/04/23 02:54:41;;;;;;;33.78;30.35;;;;;;;10.97;100.00;100393.47;5006169;28;20180;-50
2023/04/23 02:57:07;;;;;;;34.35;30.98;;;;;;;11.02;100.00;100396.81;5017798;28;20204;-50
2023/04/23 02:59:34;;;;;;;34.55;31.05;;;;;;;11.07;100.00;100402.84;5006482;28;20234;-47
2023/04/23 03:02:00;;;;;;;34.55;31.05;;;;;;;10.98;100.00;100395.22;5012160;28;20647;-47
2023/04/23 03:04:26;;;;;;;35.95;32.35;;;;;;;10.85;100.00;100400.28;5013084;28;20199;-46
2023/04/23 03:06:52;;;;;;;33.33;30.02;;;;;;;10.88;100.00;100405.50;4996532;28;20188;-48
2023/04/23 03:09:17;;;;;;;33.75;30.13;;;;;;;10.88;100.00;100401.94;5006632;28;20216;-50
2023/04/23 03:11:43;;;;;;;35.22;31.67;;;;;;;10.68;100.00;100410.91;5032504;28;20233;-47
2023/04/23 03:14:11;;;;;;;33.95;30.48;;;;;;;10.65;100.00;100414.59;4997050;28;20557;-47
2023/04/23 03:16:37;;;;;;;33.70;30.30;;;;;;;10.64;100.00;100417.34;4988988;28;20280;-47
2023/04/23 03:19:02;;;;;;;31.63;28.20;;;;;;;10.61;100.00;100412.13;5012425;28;20196;-48
2023/04/23 03:21:28;;;;;;;30.77;27.55;;;;;;;10.55;100.00;100418.63;5001609;28;20177;-46
2023/04/23 03:23:54;;;;;;;31.85;28.30;;;;;;;10.55;100.00;100413.25;5019688;28;20268;-46
2023/04/23 03:26:19;;;;;;;33.42;27.23;;;;;;;10.46;100.00;100411.88;5031125;23;20597;-44
2023/04/23 03:28:45;;;;;;;31.38;28.00;;;;;;;10.36;100.00;100429.28;5011837;28;20176;-47
2023/04/23 03:31:11;;;;;;;28.73;25.63;;;;;;;10.27;100.00;100421.63;5020001;28;20231;-48
2023/04/23 03:33:36;;;;;;;27.23;23.90;;;;;;;10.25;100.00;100423.47;4995072;28;20176;-47
2023/04/23 03:36:02;;;;;;;26.75;23.95;;;;;;;10.28;100.00;100424.22;5006761;28;20210;-46
2023/04/23 03:38:30;;;;;;;26.38;23.35;;;;;;;10.38;100.00;100416.69;5001209;28;20181;-48
2023/04/23 03:40:57;;;;;;;25.45;22.65;;;;;;;10.30;100.00;100425.06;5011262;28;20215;-45
2023/04/23 03:43:23;;;;;;;22.23;19.60;;;;;;;10.17;100.00;100429.19;5011437;28;20169;-47
2023/04/23 03:46:09;;;;;;;22.80;19.23;;;;;;;10.14;100.00;100428.44;5012067;28;20555;-48
2023/04/23 03:48:38;;;;;;;22.83;18.35;;;;;;;10.15;100.00;100430.19;5012547;28;20184;-46
2023/04/23 03:51:08;;;;;;;22.80;18.23;;;;;;;9.94;100.00;100435.50;4994929;28;20532;-46
2023/04/23 03:53:41;;;;;;;20.27;18.17;;;;;;;10.14;100.00;100433.78;5010414;28;20169;-48
2023/04/23 03:56:27;;;;;;;17.75;15.82;;;;;;;10.17;100.00;100426.50;5012294;28;20197;-48
2023/04/23 03:59:13;;;;;;;19.48;14.60;;;;;;;10.05;100.00;100437.72;4997661;28;20662;-48
2023/04/23 04:01:38;;;;;;;17.08;14.13;;;;;;;9.82;100.00;100434.22;5011007;28;20196;-46
2023/04/23 04:04:04;;;;;;;14.65;12.05;;;;;;;9.96;100.00;100439.00;5011393;28;20181;-47
2023/04/23 04:06:31;;;;;;;15.65;10.98;;;;;;;9.74;100.00;100436.34;5010611;28;20164;-50
2023/04/23 04:08:57;;;;;;;11.05;8.55;;;;;;;9.90;100.00;100423.19;5012301;28;20180;-48
2023/04/23 04:11:23;;;;;;;15.10;8.85;;;;;;;9.68;100.00;100434.75;5012409;28;20165;-47
2023/04/23 04:13:48;;;;;;;12.07;7.72;;;;;;;9.82;100.00;100428.00;4993765;28;20664;-47
2023/04/23 04:16:14;;;;;;;10.75;7.50;;;;;;;9.64;100.00;100429.59;5011798;28;20648;-48
2023/04/23 04:18:39;;;;;;;15.07;7.90;;;;;;;9.62;100.00;100428.78;5013449;28;20169;-50
2023/04/23 04:21:06;;;;;;;10.32;7.22;;;;;;;9.73;100.00;100434.59;5003243;28;20630;-51
2023/04/23 04:23:32;;;;;;;13.65;7.85;;;;;;;9.57;100.00;100433.47;5020921;28;20591;-50
2023/04/23 04:25:58;;;;;;;9.70;7.70;;;;;;;9.55;100.00;100432.66;5021458;28;20398;-50
2023/04/23 04:28:24;;;;;;;11.68;8.07;;;;;;;9.67;100.00;100429.50;5009035;28;20213;-49
2023/04/23 04:30:52;;;;;;;12.35;7.70;;;;;;;9.65;100.00;100442.06;5020863;28;20215;-52
2023/04/23 04:33:19;;;;;;;13.13;7.97;;;;;;;9.54;100.00;100434.47;5017056;28;20291;-53
2023/04/23 04:35:47;;;;;;;12.82;8.43;;;;;;;9.69;100.00;100433.84;5018759;28;20184;-50
2023/04/23 04:38:13;;;;;;;7.85;7.05;;;;;;;9.85;100.00;100449.28;5017254;28;20192;-52
2023/04/23 04:40:39;;;;;;;7.88;6.78;;;;;;;9.61;100.00;100443.13;5018857;28;20281;-51
2023/04/23 04:43:05;;;;;;;7.63;6.22;;;;;;;9.57;100.00;100446.84;5019794;28;20212;-50
2023/04/23 04:45:31;;;;;;;9.20;6.28;;;;;;;9.64;100.00;100435.84;5016582;28;20214;-49
2023/04/23 04:47:56;;;;;;;8.68;7.28;;;;;;;9.45;100.00;100443.72;5015590;28;20327;-51
2023/04/23 04:50:23;;;;;;;7.70;6.05;;;;;;;9.42;100.00;100435.84;5018458;28;20251;-51
2023/04/23 04:52:48;;;;;;;8.40;6.40;;;;;;;9.37;100.00;100437.81;5016957;28;20257;-51
2023/04/23 04:55:14;;;;;;;8.13;5.97;;;;;;;9.35;100.00;100434.31;5020530;28;20625;-50
2023/04/23 04:57:39;;;;;;;6.68;5.13;;;;;;;9.55;100.00;100440.69;5016741;28;20623;-51
2023/04/23 05:00:28;;;;;;;10.43;6.07;;;;;;;9.41;100.00;100455.47;5018792;28;20200;-50
2023/04/23 05:02:54;;;;;;;6.00;5.32;;;;;;;9.47;100.00;100449.91;5010321;28;20553;-50
2023/04/23 05:05:21;;;;;;;7.80;6.03;;;;;;;9.56;100.00;100451.34;5014542;28;20181;-52
2023/04/23 05:07:47;;;;;;;9.60;5.97;;;;;;;9.53;100.00;100448.75;5016226;28;20329;-51
2023/04/23 05:10:14;;;;;;;6.60;5.45;;;;;;;9.55;100.00;100462.09;5017684;28;20695;-51
2023/04/23 05:12:40;;;;;;;8.43;5.47;;;;;;;9.39;100.00;100464.50;5009008;28;20681;-50
2023/04/23 05:15:08;;;;;;;7.05;5.28;;;;;;;9.54;100.00;100461.22;5016045;28;20230;-52
2023/04/23 05:17:34;;;;;;;7.38;5.55;;;;;;;9.57;100.00;100457.53;5016091;28;20191;-51
2023/04/23 05:19:59;;;;;;;8.02;4.90;;;;;;;9.35;100.00;100460.19;5013983;28;20416;-51
2023/04/23 05:22:26;;;;;;;6.50;4.22;;;;;;;9.47;100.00;100470.44;5016623;28;20271;-52
2023/04/23 05:24:51;;;;;;;8.43;4.60;;;;;;;9.47;100.00;100471.28;5021615;28;20177;-53
2023/04/23 05:27:17;;;;;;;6.70;4.78;;;;;;;9.55;100.00;100470.09;5017106;28;20681;-50
2023/04/23 05:29:43;;;;;;;7.78;4.88;;;;;;;9.53;100.00;100469.28;5021391;28;20196;-50
2023/04/23 05:32:08;;;;;;;5.10;4.60;;;;;;;9.49;100.00;100466.75;5017066;28;20347;-49
2023/04/23 05:34:34;;;;;;;8.82;4.88;;;;;;;9.37;100.00;100474.38;5013436;28;20172;-50
2023/04/23 05:37:01;;;;;;;5.80;5.15;;;;;;;9.37;100.00;100477.91;5014895;28;20514;-45
2023/04/23 05:39:27;;;;;;;8.60;5.13;;;;;;;9.35;100.00;100476.25;5021415;28;20577;-46
2023/04/23 05:41:52;;;;;;;5.07;4.57;;;;;;;9.42;100.00;100480.41;5016934;28;20181;-47
2023/04/23 05:44:18;;;;;;;6.30;5.10;;;;;;;9.37;100.00;100491.28;5020303;28;20172;-44
2023/04/23 05:46:44;;;;;;;6.07;4.65;;;;;;;9.38;100.00;100493.06;5003404;28;20216;-50
2023/04/23 05:49:09;;;;;;;7.60;5.22;;;;;;;9.26;100.00;100488.16;5020464;28;20357;-50
2023/04/23 05:51:35;;;;;;;7.32;4.88;;;;;;;9.20;100.00;100493.72;5018321;28;20191;-51
2023/04/23 05:54:01;;;;;;;9.55;4.97;;;;;;;9.25;100.00;100499.78;5013673;28;20889;-49
2023/04/23 05:56:27;;;;;;;6.10;4.55;;;;;;;9.39;100.00;100497.44;5017272;28;20184;-52
2023/04/23 05:58:52;;;;;;;6.57;4.75;;;;;;;9.46;100.00;100506.09;5009986;28;20600;-52
2023/04/23 06:01:18;;;;;;;7.18;4.88;;;;;;;9.31;100.00;100498.66;4991931;28;20195;-51
2023/04/23 06:03:44;;;;;;;7.25;4.78;;;;;;;9.41;100.00;100500.06;5017654;28;20191;-51
2023/04/23 06:06:13;;;;;;;7.43;4.63;;;;;;;9.39;100.00;100502.78;5013826;28;20234;-54
2023/04/23 06:08:39;;;;;;;8.02;4.80;;;;;;;9.69;100.00;100503.41;5014281;28;20200;-51
2023/04/23 06:11:05;;;;;;;4.95;4.55;;;;;;;10.03;100.00;100499.34;5016094;28;20228;-54
2023/04/23 06:13:31;;;;;;;4.43;4.03;;;;;;;9.78;100.00;100493.28;5016273;28;20260;-52
2023/04/23 06:15:57;;;;;;;6.50;4.30;;;;;;;9.66;100.00;100498.19;5015701;28;20223;-48
2023/04/23 06:18:22;;;;;;;4.25;3.80;;;;;;;9.77;100.00;100495.06;5014368;28;20606;-49
2023/04/23 06:20:50;;;;;;;4.53;3.53;;;;;;;9.81;100.00;100495.81;5015492;28;20200;-50
2023/04/23 06:23:16;;;;;;;6.25;3.65;;;;;;;10.21;100.00;100505.75;5018842;28;20681;-49
2023/04/23 06:25:41;;;;;;;6.55;3.65;;;;;;;10.09;100.00;100496.41;5016227;28;20181;-50
2023/04/23 06:28:07;;;;;;;7.05;4.00;;;;;;;10.08;100.00;100501.84;5017362;28;20234;-49
2023/04/23 06:30:41;;;;;;;7.82;3.50;;;;;;;10.23;100.00;100495.88;5006893;28;20208;-50
2023/04/23 06:33:08;;;;;;;4.32;3.90;;;;;;;10.37;100.00;100481.91;5015656;28;20689;-49
2023/04/23 06:35:33;;;;;;;4.72;3.92;;;;;;;10.23;100.00;100492.28;5018738;28;20180;-49
2023/04/23 06:37:59;;;;;;;5.13;3.75;;;;;;;10.30;100.00;100497.38;5018679;28;20178;-52
2023/04/23 06:40:24;;;;;;;4.30;3.75;;;;;;;10.29;100.00;100494.75;5019709;28;20299;-50
2023/04/23 06:42:50;;;;;;;4.95;4.28;;;;;;;10.45;100.00;100482.47;5008313;28;20227;-47
2023/04/23 06:45:32;;;;;;;6.47;4.20;;;;;;;10.08;100.00;100493.81;5006632;28;20192;-47
2023/04/23 06:47:59;;;;;;;5.68;3.83;;;;;;;10.29;100.00;100484.91;5022423;28;20205;-46
2023/04/23 06:50:24;;;;;;;5.70;3.70;;;;;;;10.43;99.62;100488.78;5024535;28;20246;-47
2023/04/23 06:52:50;;;;;;;4.75;3.88;;;;;;;10.64;98.83;100493.22;5019335;28;20184;-49
2023/04/23 06:55:16;;;;;;;4.30;3.90;;;;;;;10.64;97.44;100487.00;5022012;28;20188;-48
2023/04/23 06:57:41;;;;;;;5.28;3.78;;;;;;;10.39;96.55;100481.84;5018839;28;20204;-54
2023/04/23 07:00:09;;;;;;;8.40;4.43;;;;;;;10.02;96.20;100473.53;5022599;28;20311;-48
2023/04/23 07:02:37;;;;;;;5.47;4.43;;;;;;;10.06;96.11;100485.00;5009942;28;20191;-49
2023/04/23 07:05:03;;;;;;;4.97;4.00;;;;;;;9.93;96.10;100478.38;5020685;28;20246;-49
2023/04/23 07:07:29;;;;;;;5.07;4.28;;;;;;;9.88;96.38;100482.13;5015716;28;20196;-50
2023/04/23 07:09:55;;;;;;;7.15;4.35;;;;;;;9.88;96.08;100486.59;5013082;28;20295;-50
2023/04/23 07:12:21;;;;;;;5.10;4.60;;;;;;;9.82;96.51;100485.06;5025246;28;20697;-51
2023/04/23 07:14:46;;;;;;;5.80;4.95;;;;;;;9.72;96.24;100493.50;5023903;28;20187;-51
2023/04/23 07:17:12;;;;;;;9.90;5.45;;;;;;;9.77;95.95;100483.50;5020407;28;20180;-49
2023/04/23 07:19:37;;;;;;;5.05;4.55;;;;;;;9.88;96.20;100482.13;5018071;28;20209;-49
2023/04/23 07:22:03;;;;;;;5.43;4.78;;;;;;;10.10;95.88;100481.22;5020848;28;20183;-50
2023/04/23 07:24:29;;;;;;;6.18;4.55;;;;;;;10.12;95.12;100490.06;5019779;28;20169;-53
2023/04/23 07:26:54;;;;;;;5.82;4.38;;;;;;;10.17;95.40;100485.41;5017209;28;20223;-49
2023/04/23 07:29:20;;;;;;;4.78;4.35;;;;;;;10.10;95.04;100475.88;5021551;28;20210;-49
2023/04/23 07:31:47;;;;;;;4.82;4.40;;;;;;;10.11;94.39;100473.13;5020975;28;20184;-47
2023/04/23 07:34:12;;;;;;;4.57;4.10;;;;;;;10.25;93.73;100483.25;5018546;28;20184;-47
2023/04/23 07:36:38;;;;;;;5.35;4.45;;;;;;;10.29;93.11;100489.41;5020679;28;20681;-49
2023/04/23 07:39:04;;;;;;;4.45;4.05;;;;;;;10.44;92.65;100477.16;5016192;28;20540;-46
2023/04/23 07:41:30;;;;;;;4.18;3.78;;;;;;;10.69;92.38;100476.94;5015776;28;20192;-45
2023/04/23 07:43:56;;;;;;;6.60;3.80;;;;;;;11.04;91.52;100475.38;5021041;28;20177;-46
2023/04/23 07:46:21;;;;;;;4.45;4.05;;;;;;;10.91;90.40;100471.47;5020035;28;20177;-47
2023/04/23 07:48:47;;;;;;;5.65;4.47;;;;;;;10.75;89.96;100483.84;5019145;28;20343;-46
2023/04/23 07:51:12;;;;;;;7.53;4.18;;;;;;;11.05;89.51;100485.13;5018813;28;20691;-45
2023/04/23 07:53:38;;;;;;;4.80;4.20;;;;;;;11.08;89.07;100476.09;5024103;28;20191;-46
2023/04/23 07:56:04;;;;;;;4.78;3.95;;;;;;;11.20;88.39;100483.56;5018374;28;20251;-46
2023/04/23 07:58:31;;;;;;;3.90;3.60;;;;;;;11.22;87.50;100465.59;4987501;28;20645;-48
2023/04/23 08:00:57;;;;;;;5.47;4.28;;;;;;;11.18;87.18;100463.13;5022303;28;20200;-49
2023/04/23 08:03:24;;;;;;;5.18;4.40;;;;;;;11.07;86.41;100461.81;5021704;28;20190;-47
2023/04/23 08:05:50;;;;;;;7.35;5.13;;;;;;;11.23;86.07;100470.00;5001886;28;20772;-45
2023/04/23 08:08:16;;;;;;;5.95;4.65;;;;;;;11.21;85.96;100460.28;5018926;28;20287;-47
2023/04/23 08:10:42;;;;;;;5.80;4.85;;;;;;;11.60;85.87;100483.50;5010272;28;20679;-48
2023/04/23 08:13:07;;;;;;;5.85;5.32;;;;;;;11.60;85.36;100476.31;4999207;28;20212;-49
2023/04/23 08:15:33;;;;;;;6.18;5.10;;;;;;;11.74;84.24;100468.47;5019385;28;20176;-50
2023/04/23 08:17:58;;;;;;;5.47;4.90;;;;;;;11.94;83.45;100466.66;5018998;28;20172;-51
2023/04/23 08:20:24;;;;;;;5.38;4.88;;;;;;;11.94;83.19;100462.16;5024253;28;20286;-52
2023/04/23 08:22:52;;;;;;;9.75;5.20;;;;;;;12.10;82.47;100458.69;5021683;28;20173;-49
2023/04/23 08:25:19;;;;;;;7.93;5.38;;;;;;;11.61;82.23;100450.34;5008457;28;20295;-50
2023/04/23 08:27:44;;;;;;;5.60;5.10;;;;;;;11.74;82.39;100456.84;5015677;28;20215;-49
2023/04/23 08:30:10;;;;;;;5.88;5.28;;;;;;;11.94;82.04;100461.28;5018676;28;20204;-50
2023/04/23 08:32:38;;;;;;;6.22;5.63;;;;;;;12.01;81.95;100445.75;5019656;28;20184;-50
2023/04/23 08:35:04;;;;;;;6.97;6.20;;;;;;;11.94;81.29;100451.41;5020534;28;20556;-51
2023/04/23 08:37:29;;;;;;;6.93;6.07;;;;;;;11.91;80.61;100445.31;5019161;28;20173;-50
2023/04/23 08:39:55;;;;;;;7.07;6.22;;;;;;;12.16;80.30;100445.81;5014109;28;20215;-50
2023/04/23 08:42:34;;;;;;;6.25;5.65;;;;;;;12.28;80.06;100449.69;5015747;28;20199;-51
2023/04/23 08:45:02;;;;;;;6.38;5.75;;;;;;;12.43;79.03;100439.97;5019227;28;20192;-48
2023/04/23 08:47:28;;;;;;;7.78;6.18;;;;;;;12.37;78.97;100437.59;5020649;28;20246;-47
2023/04/23 08:49:57;;;;;;;5.35;4.68;;;;;;;12.14;77.97;100438.81;5000796;28;20300;-43
2023/04/23 08:52:25;;;;;;;6.45;5.28;;;;;;;12.35;76.56;100431.44;5020846;28;20242;-45
2023/04/23 08:55:03;;;;;;;5.80;5.30;;;;;;;12.19;76.19;100420.63;5011343;28;20172;-46
2023/04/23 08:57:29;;;;;;;7.43;5.70;;;;;;;12.60;76.26;100428.34;5017777;28;20221;-47
2023/04/23 08:59:55;;;;;;;7.20;6.43;;;;;;;12.67;76.33;100426.19;5025471;28;20530;-46
2023/04/23 09:02:22;;;;;;;8.25;6.93;;;;;;;13.13;75.73;100426.38;5016005;28;20183;-46
2023/04/23 09:04:47;;;;;;;6.88;6.15;;;;;;;13.31;74.23;100414.63;5014894;28;20201;-46
2023/04/23 09:07:14;;;;;;;7.88;6.55;;;;;;;13.27;74.23;100418.44;5019260;28;20191;-45
2023/04/23 09:09:40;;;;;;;11.07;6.80;;;;;;;13.35;73.58;100410.78;5017786;28;20208;-47
2023/04/23 09:12:07;;;;;;;9.02;7.63;;;;;;;13.20;73.02;100409.78;5019717;28;20262;-47
2023/04/23 09:14:34;;;;;;;8.77;7.25;;;;;;;13.09;73.55;100414.91;5011068;28;20219;-45
2023/04/23 09:17:02;;;;;;;7.60;6.80;;;;;;;13.07;72.44;100411.44;5013972;28;20169;-46
2023/04/23 09:19:27;;;;;;;7.63;6.90;;;;;;;13.00;72.18;100401.97;5024349;28;20270;-48
2023/04/23 09:21:53;;;;;;;9.45;7.05;;;;;;;13.01;71.92;100395.66;5017142;28;20798;-47
2023/04/23 09:24:23;;;;;;;9.73;7.43;;;;;;;12.67;72.41;100405.56;5016320;28;20176;-48
2023/04/23 09:26:50;;;;;;;8.20;7.40;;;;;;;12.82;72.65;100411.94;5015522;28;20199;-51
2023/04/23 09:29:22;;;;;;;8.93;8.10;;;;;;;12.87;72.29;100406.28;5018332;28;20237;-51
2023/04/23 09:31:54;;;;;;;7.93;7.20;;;;;;;12.85;71.65;100398.31;5015864;28;20630;-50
2023/04/23 09:34:23;;;;;;;9.57;8.63;;;;;;;13.14;71.21;100395.81;5020006;28;20620;-50
2023/04/23 09:36:50;;;;;;;8.15;7.45;;;;;;;12.87;71.17;100387.47;5016755;28;20181;-52
2023/04/23 09:39:18;;;;;;;9.82;7.82;;;;;;;12.62;71.90;100404.09;5013545;28;20211;-51
2023/04/23 09:41:46;;;;;;;8.75;7.85;;;;;;;12.82;72.67;100414.63;5016306;28;20184;-52
2023/04/23 09:44:17;;;;;;;9.25;7.85;;;;;;;12.84;72.87;100418.09;5020023;28;20670;-49
2023/04/23 09:46:43;;;;;;;8.40;7.70;;;;;;;12.63;73.13;100406.66;5017572;28;20563;-50
2023/04/23 09:49:10;;;;;;;10.13;7.78;;;;;;;12.77;73.28;100420.25;5016961;28;20193;-50
2023/04/23 09:51:47;;;;;;;9.15;7.40;;;;;;;12.96;72.93;100416.53;5021012;28;20306;-50
2023/04/23 09:54:15;;;;;;;7.45;6.80;;;;;;;13.03;71.97;100407.22;5010117;28;20702;-48
2023/04/23 09:56:41;;;;;;;9.38;7.05;;;;;;;13.13;72.01;100410.25;5018180;28;20188;-51
2023/04/23 09:59:25;;;;;;;8.23;7.40;;;;;;;13.17;72.13;100401.91;5012524;28;20181;-50
2023/04/23 10:01:51;;;;;;;7.47;6.85;;;;;;;13.38;70.95;100398.97;5016058;28;20275;-49
2023/04/23 10:04:22;;;;;;;7.63;6.90;;;;;;;13.71;69.36;100379.16;5020011;28;20218;-52
2023/04/23 10:06:54;;;;;;;7.32;6.63;;;;;;;13.63;69.39;100376.94;5029452;28;20160;-46
2023/04/23 10:09:23;;;;;;;8.65;7.07;;;;;;;13.80;68.51;100374.13;5029693;28;20533;-47
2023/04/23 10:11:52;;;;;;;8.35;7.03;;;;;;;14.04;67.76;100367.34;5029188;28;20213;-47
2023/04/23 10:14:22;;;;;;;8.90;7.13;;;;;;;14.36;68.08;100360.88;5012067;28;20180;-50
2023/04/23 10:16:51;;;;;;;8.93;7.28;;;;;;;13.94;67.13;100365.22;5029482;28;20242;-50
2023/04/23 10:19:21;;;;;;;7.68;6.97;;;;;;;13.75;67.43;100353.78;5029702;28;20234;-47
2023/04/23 10:21:59;;;;;;;8.40;7.50;;;;;;;14.28;67.05;100367.69;5012231;28;20621;-46
2023/04/23 10:24:29;;;;;;;8.23;7.03;;;;;;;14.07;67.00;100364.47;5029337;28;20180;-47
2023/04/23 10:26:59;;;;;;;7.60;6.90;;;;;;;14.00;67.41;100364.84;5029420;28;20191;-45
2023/04/23 10:29:28;;;;;;;8.48;7.18;;;;;;;14.49;66.35;100358.28;5029516;28;20207;-46
2023/04/23 10:31:56;;;;;;;8.27;6.93;;;;;;;14.46;66.60;100352.22;5029698;28;20212;-46
2023/04/23 10:34:23;;;;;;;8.15;6.75;;;;;;;14.69;66.76;100356.19;5029746;28;20602;-46
2023/04/23 10:36:50;;;;;;;7.43;6.70;;;;;;;14.78;66.26;100348.41;5011892;28;20192;-45
2023/04/23 10:39:17;;;;;;;7.85;7.07;;;;;;;14.81;65.00;100347.34;5029510;28;20641;-46
2023/04/23 10:41:43;;;;;;;8.13;7.18;;;;;;;13.88;65.39;100335.94;5029485;28;20168;-46
2023/04/23 10:44:15;;;;;;;7.45;6.75;;;;;;;14.71;65.26;100349.75;5023368;28;20184;-47
2023/04/23 10:46:50;;;;;;;10.82;7.43;;;;;;;14.48;65.03;100332.31;5014544;28;20216;-47
2023/04/23 10:49:15;;;;;;;8.73;6.75;;;;;;;14.96;64.23;100338.28;5018383;28;20325;-48
2023/04/23 10:51:45;;;;;;;7.57;6.78;;;;;;;14.93;63.51;100319.56;5020392;28;20212;-47
2023/04/23 10:54:15;;;;;;;8.85;6.45;;;;;;;15.14;63.84;100329.94;5020476;28;20184;-47
2023/04/23 10:56:42;;;;;;;7.30;6.45;;;;;;;15.58;63.10;100318.91;5015814;28;20274;-48
2023/04/23 10:59:17;;;;;;;6.35;5.75;;;;;;;15.57;62.15;100308.22;5014755;28;20184;-47
2023/04/23 11:01:46;;;;;;;6.30;5.70;;;;;;;16.23;61.08;100298.28;5014839;28;20191;-47
2023/04/23 11:04:24;;;;;;;6.60;5.95;;;;;;;15.79;60.20;100280.66;5018249;28;20255;-47
2023/04/23 11:06:53;;;;;;;6.47;5.75;;;;;;;15.86;59.76;100273.84;5016600;28;20188;-47
2023/04/23 11:09:41;;;;;;;6.03;5.43;;;;;;;16.45;59.96;100281.41;5002326;28;20270;-47
2023/04/23 11:12:31;;;;;;;6.03;5.43;;;;;;;16.09;58.00;100261.41;5018741;28;20196;-48
2023/04/23 11:15:01;;;;;;;7.13;6.40;;;;;;;16.05;57.58;100262.63;5015471;28;20872;-48
2023/04/23 11:17:32;;;;;;;5.85;5.35;;;;;;;15.38;57.82;100262.69;5016862;28;20184;-48
2023/04/23 11:20:12;;;;;;;6.38;5.78;;;;;;;15.60;58.30;100268.34;5018450;28;20212;-48